Stickney, South Dakota
Current Conditions -  °F | °C
As of 11:53 AM on Monday 22 Dec 2014 (Local Time) from KMHE Reporting Station
Haze Haze  
Wind Chill: 32°   Ceiling: 600
Heat Index: 37°   Visibility: 5mi
Dew Point: 35°   Wind: 6mph
Humidity: 93%   Direction: 290°WNW
Pressure: 29.43"   Gusts: NA
Location:  43.59°N, 98.44°W
Report Text: KMHE 221753Z AUTO 29005KT 5SM BR OVC006 03/02 A2943 RMK AO2 RAB07E23 CIG 004V011 SLP976 P0000 60000 T00280017 10028 20011 58006
Loading
Personal Weather Stations






























Interactive Weather Map New forecast layout! Learn more

10-Day Weather Forecast

Advertisements
Track Severe Weather on mobile